createdAt,value
2018-05-11T00:00:17.027Z,0.00
2018-05-11T00:01:17.124Z,0.00
2018-05-11T00:05:28.823Z,0.00
2018-05-11T00:06:27.640Z,0.00
2018-05-11T00:07:31.824Z,0.00
2018-05-11T00:15:10.151Z,0.00
2018-05-11T00:15:44.107Z,0.00
2018-05-11T00:16:42.496Z,0.00
2018-05-11T00:17:52.237Z,0.00
2018-05-11T00:18:45.118Z,0.00
2018-05-11T00:19:42.639Z,0.00
2018-05-11T00:20:42.727Z,0.00
2018-05-11T00:27:10.903Z,0.00
2018-05-11T00:28:10.783Z,0.00
2018-05-11T00:35:36.752Z,0.00
2018-05-11T00:37:04.500Z,0.00
2018-05-11T01:08:35.250Z,0.00
2018-05-11T02:14:27.458Z,0.00
2018-05-11T02:15:27.646Z,0.00
2018-05-11T03:56:11.361Z,0.00
2018-05-11T03:57:08.697Z,0.00
2018-05-11T03:58:08.859Z,0.00
2018-05-11T03:59:09.454Z,0.00
2018-05-11T04:00:11.459Z,0.00
2018-05-11T04:01:08.887Z,0.00
2018-05-11T04:33:56.604Z,5.63
2018-05-11T04:34:38.404Z,5.63
2018-05-11T04:35:38.349Z,5.63
2018-05-11T04:36:38.419Z,5.63
2018-05-11T04:37:38.579Z,5.63
2018-05-11T04:38:38.493Z,5.63
2018-05-11T04:39:38.306Z,5.63
2018-05-11T04:40:38.474Z,5.63
2018-05-11T04:41:38.467Z,11.25
2018-05-11T04:42:38.527Z,11.25
2018-05-11T04:43:38.491Z,11.25
2018-05-11T04:44:38.259Z,11.25
2018-05-11T04:45:51.138Z,11.25
2018-05-11T04:46:38.227Z,11.25
2018-05-11T04:47:38.197Z,11.25
2018-05-11T04:48:40.250Z,11.25
2018-05-11T04:49:38.185Z,11.25
2018-05-11T04:50:38.172Z,11.25
2018-05-11T04:51:38.172Z,11.25
2018-05-11T04:52:38.135Z,11.25
2018-05-11T04:53:38.154Z,11.25
2018-05-11T04:54:38.105Z,11.25
2018-05-11T04:55:38.097Z,11.25
2018-05-11T04:56:38.080Z,11.25
2018-05-11T04:57:38.113Z,11.25
2018-05-11T04:58:38.051Z,11.25
2018-05-11T04:59:38.045Z,11.25
2018-05-11T05:00:38.141Z,11.25
2018-05-11T05:01:38.045Z,11.25
2018-05-11T05:02:38.008Z,11.25
2018-05-11T05:03:38.003Z,11.25
2018-05-11T05:04:37.976Z,11.25
2018-05-11T05:05:37.974Z,11.25
2018-05-11T05:06:37.953Z,11.25
2018-05-11T05:07:37.942Z,11.25
2018-05-11T05:08:38.022Z,11.25
2018-05-11T05:09:37.928Z,11.25
2018-05-11T05:10:37.919Z,11.25
2018-05-11T05:11:37.904Z,11.25
2018-05-11T05:12:37.893Z,11.25
2018-05-11T05:13:37.876Z,11.25
2018-05-11T05:14:37.941Z,11.25
2018-05-11T05:15:37.853Z,11.25
2018-05-11T05:16:37.831Z,11.25
2018-05-11T05:17:37.828Z,11.25
2018-05-11T05:18:37.820Z,11.25
2018-05-11T05:19:37.796Z,11.25
2018-05-11T05:20:37.839Z,11.25
2018-05-11T05:21:37.789Z,11.25
2018-05-11T05:22:37.769Z,11.25
2018-05-11T05:23:37.760Z,11.25
2018-05-11T05:24:37.745Z,11.25
2018-05-11T05:25:37.734Z,11.25
2018-05-11T05:26:37.741Z,11.25
2018-05-11T05:27:37.709Z,11.25
2018-05-11T05:28:37.699Z,11.25
2018-05-11T05:29:38.114Z,11.25
2018-05-11T05:30:37.664Z,11.25
2018-05-11T05:31:37.655Z,11.25
2018-05-11T05:32:37.662Z,11.25
2018-05-11T05:33:37.646Z,11.25
2018-05-11T05:34:37.620Z,11.25
2018-05-11T05:35:37.612Z,11.25
2018-05-11T05:36:37.734Z,11.25
2018-05-11T05:37:37.592Z,11.25
2018-05-11T05:38:37.581Z,11.25
2018-05-11T05:39:37.564Z,11.25
2018-05-11T05:40:37.563Z,11.25
2018-05-11T05:41:37.543Z,11.25
2018-05-11T05:42:37.576Z,11.25
2018-05-11T05:43:37.518Z,11.25
2018-05-11T05:44:37.513Z,11.25
2018-05-11T05:45:37.487Z,16.88
2018-05-11T05:46:37.629Z,16.88
2018-05-11T05:47:37.472Z,16.88
2018-05-11T05:48:37.470Z,16.88
2018-05-11T05:49:37.446Z,16.88
2018-05-11T05:50:37.436Z,22.50
2018-05-11T05:51:37.418Z,28.13
2018-05-11T05:52:37.443Z,33.75
2018-05-11T05:53:37.402Z,33.75
2018-05-11T05:54:37.395Z,28.13
2018-05-11T05:55:37.370Z,28.13
2018-05-11T05:56:37.577Z,33.75
2018-05-11T05:57:37.486Z,33.75
2018-05-11T05:58:37.332Z,33.75
2018-05-11T05:59:37.331Z,33.75
2018-05-11T06:00:37.317Z,33.75
2018-05-11T06:01:37.306Z,33.75
2018-05-11T06:02:37.289Z,39.38
2018-05-11T06:03:37.348Z,39.38
2018-05-11T06:04:37.355Z,39.38
2018-05-11T06:05:37.257Z,45.00
2018-05-11T06:06:37.249Z,45.00
2018-05-11T06:07:37.236Z,39.38
2018-05-11T06:08:37.216Z,39.38
2018-05-11T06:09:37.230Z,39.38
2018-05-11T06:10:37.200Z,39.38
2018-05-11T06:11:37.230Z,39.38
2018-05-11T06:12:37.174Z,39.38
2018-05-11T06:13:37.195Z,39.38
2018-05-11T06:14:37.151Z,45.00
2018-05-11T06:15:37.225Z,50.63
2018-05-11T06:16:37.155Z,45.00
2018-05-11T06:17:37.171Z,45.00
2018-05-11T06:18:37.095Z,39.38
2018-05-11T06:19:37.093Z,33.75
2018-05-11T06:20:37.084Z,33.75
2018-05-11T06:21:37.140Z,28.13
2018-05-11T06:22:37.060Z,28.13
2018-05-11T06:23:37.057Z,28.13
2018-05-11T06:24:37.034Z,28.13
2018-05-11T06:25:37.027Z,33.75
2018-05-11T06:26:37.019Z,45.00
2018-05-11T06:27:37.024Z,45.00
2018-05-11T06:28:36.988Z,50.63
2018-05-11T06:29:36.991Z,50.63
2018-05-11T06:30:36.966Z,56.25
2018-05-11T06:31:36.958Z,61.88
2018-05-11T06:32:37.084Z,67.50
2018-05-11T06:33:36.929Z,78.75
2018-05-11T06:34:37.016Z,78.75
2018-05-11T06:35:36.912Z,84.38
2018-05-11T06:36:36.897Z,78.75
2018-05-11T06:37:36.891Z,78.75
2018-05-11T06:38:36.917Z,73.13
2018-05-11T06:39:36.869Z,73.13
2018-05-11T06:40:36.897Z,67.50
2018-05-11T06:41:36.849Z,61.88
2018-05-11T06:42:36.830Z,73.13
2018-05-11T06:43:36.845Z,67.50
2018-05-11T06:44:36.825Z,61.88
2018-05-11T06:45:36.808Z,61.88
2018-05-11T06:46:36.796Z,61.88
2018-05-11T06:47:36.793Z,61.88
2018-05-11T06:48:36.987Z,61.88
2018-05-11T06:49:36.765Z,61.88
2018-05-11T06:50:36.754Z,61.88
2018-05-11T06:51:36.753Z,56.25
2018-05-11T06:52:36.733Z,56.25
2018-05-11T06:53:36.721Z,61.88
2018-05-11T06:54:36.716Z,56.25
2018-05-11T06:55:36.702Z,56.25
2018-05-11T06:56:36.692Z,56.25
2018-05-11T06:57:36.671Z,56.25
2018-05-11T06:58:36.675Z,56.25
2018-05-11T06:59:36.695Z,56.25
2018-05-11T07:00:36.651Z,56.25
2018-05-11T07:01:36.703Z,61.88
2018-05-11T07:02:36.621Z,56.25
2018-05-11T07:03:36.651Z,50.63
2018-05-11T07:04:36.623Z,50.63
2018-05-11T07:05:36.599Z,61.88
2018-05-11T07:06:36.592Z,61.88
2018-05-11T07:07:36.583Z,67.50
2018-05-11T07:08:36.577Z,73.13
2018-05-11T07:09:36.605Z,78.75
2018-05-11T07:10:36.559Z,84.38
2018-05-11T07:11:36.539Z,90.00
2018-05-11T07:12:36.535Z,90.00
2018-05-11T07:13:36.526Z,84.38
2018-05-11T07:14:36.523Z,95.63
2018-05-11T07:15:36.537Z,106.88
2018-05-11T07:16:36.485Z,118.13
2018-05-11T07:17:36.480Z,101.25
2018-05-11T07:18:36.471Z,90.00
2018-05-11T07:19:36.465Z,90.00
2018-05-11T07:20:36.474Z,95.63
2018-05-11T07:21:36.450Z,101.25
2018-05-11T07:22:36.435Z,101.25
2018-05-11T07:23:36.418Z,95.63
2018-05-11T07:24:36.401Z,73.13
2018-05-11T07:25:36.449Z,67.50
2018-05-11T07:26:36.407Z,67.50
2018-05-11T07:27:36.383Z,67.50
2018-05-11T07:28:36.804Z,67.50
2018-05-11T07:29:36.373Z,67.50
2018-05-11T07:30:36.355Z,67.50
2018-05-11T07:31:36.335Z,67.50
2018-05-11T07:32:36.336Z,67.50
2018-05-11T07:33:36.330Z,67.50
2018-05-11T07:34:36.317Z,67.50
2018-05-11T07:35:36.320Z,67.50
2018-05-11T07:36:36.297Z,67.50
2018-05-11T07:37:36.308Z,61.88
2018-05-11T07:38:36.279Z,61.88
2018-05-11T07:39:36.296Z,61.88
2018-05-11T07:40:36.255Z,61.88
2018-05-11T07:41:36.239Z,61.88
2018-05-11T07:42:36.240Z,61.88
2018-05-11T07:43:36.218Z,61.88
2018-05-11T07:44:36.273Z,61.88
2018-05-11T07:45:36.206Z,61.88
2018-05-11T07:46:36.191Z,67.50
2018-05-11T07:47:36.198Z,61.88
2018-05-11T07:48:36.174Z,67.50
2018-05-11T07:49:36.182Z,67.50
2018-05-11T07:50:36.184Z,73.13
2018-05-11T07:51:36.160Z,73.13
2018-05-11T07:52:36.141Z,61.88
2018-05-11T07:53:36.123Z,67.50
2018-05-11T07:54:36.121Z,67.50
2018-05-11T07:55:36.165Z,67.50
2018-05-11T07:56:36.106Z,73.13
2018-05-11T07:57:36.091Z,67.50
2018-05-11T07:58:36.091Z,67.50
2018-05-11T07:59:36.062Z,73.13
2018-05-11T08:00:36.065Z,78.75
2018-05-11T08:01:36.061Z,84.38
2018-05-11T08:02:36.045Z,84.38
2018-05-11T08:03:36.028Z,84.38
2018-05-11T08:04:36.022Z,84.38
2018-05-11T08:05:36.017Z,78.75
2018-05-11T08:06:36.034Z,78.75
2018-05-11T08:07:36.022Z,78.75
2018-05-11T08:08:35.999Z,78.75
2018-05-11T08:09:35.980Z,78.75
2018-05-11T08:10:35.969Z,78.75
2018-05-11T08:11:35.963Z,84.38
2018-05-11T08:12:35.957Z,84.38
2018-05-11T08:13:35.948Z,84.38
2018-05-11T08:14:36.037Z,78.75
2018-05-11T08:15:35.915Z,78.75
2018-05-11T08:16:35.912Z,84.38
2018-05-11T08:17:35.906Z,84.38
2018-05-11T08:18:35.931Z,78.75
2018-05-11T08:19:35.894Z,78.75
2018-05-11T08:20:35.873Z,78.75
2018-05-11T08:21:35.868Z,78.75
2018-05-11T08:22:35.893Z,78.75
2018-05-11T08:23:35.850Z,78.75
2018-05-11T08:24:35.840Z,78.75
2018-05-11T08:25:35.829Z,84.38
2018-05-11T08:26:35.854Z,84.38
2018-05-11T08:27:35.848Z,78.75
2018-05-11T08:28:35.801Z,84.38
2018-05-11T08:29:35.796Z,95.63
2018-05-11T08:30:35.788Z,95.63
2018-05-11T08:31:35.778Z,90.00
2018-05-11T08:32:35.803Z,84.38
2018-05-11T08:33:35.764Z,90.00
2018-05-11T08:34:35.758Z,95.63
2018-05-11T08:35:35.739Z,95.63
2018-05-11T08:36:35.739Z,95.63
2018-05-11T08:37:35.879Z,101.25
2018-05-11T08:38:35.712Z,112.50
2018-05-11T08:39:35.707Z,106.88
2018-05-11T08:40:35.692Z,95.63
2018-05-11T08:41:35.693Z,90.00
2018-05-11T08:42:35.669Z,95.63
2018-05-11T08:43:35.741Z,95.63
2018-05-11T08:44:35.657Z,95.63
2018-05-11T08:45:35.654Z,101.25
2018-05-11T08:46:35.641Z,106.88
2018-05-11T08:47:35.640Z,112.50
2018-05-11T08:48:35.639Z,123.75
2018-05-11T08:49:35.691Z,151.88
2018-05-11T08:50:35.604Z,151.88
2018-05-11T08:51:35.609Z,123.75
2018-05-11T08:52:35.580Z,123.75
2018-05-11T08:53:35.583Z,112.50
2018-05-11T08:54:35.571Z,129.38
2018-05-11T08:55:35.569Z,140.63
2018-05-11T08:56:35.554Z,129.38
2018-05-11T08:57:35.564Z,129.38
2018-05-11T08:58:35.551Z,123.75
2018-05-11T08:59:35.535Z,140.63
2018-05-11T09:00:35.696Z,135.00
2018-05-11T09:01:35.547Z,112.50
2018-05-11T09:02:35.509Z,112.50
2018-05-11T09:03:35.510Z,101.25
2018-05-11T09:04:35.490Z,101.25
2018-05-11T09:05:35.484Z,90.00
2018-05-11T09:06:35.843Z,90.00
2018-05-11T09:07:35.462Z,101.25
2018-05-11T09:08:35.498Z,101.25
2018-05-11T09:09:35.461Z,106.88
2018-05-11T09:10:35.445Z,118.13
2018-05-11T09:11:35.431Z,123.75
2018-05-11T09:12:35.444Z,106.88
2018-05-11T09:13:35.429Z,101.25
2018-05-11T09:14:35.411Z,101.25
2018-05-11T09:15:35.407Z,95.63
2018-05-11T09:16:35.397Z,90.00
2018-05-11T09:17:35.415Z,90.00
2018-05-11T09:18:35.379Z,95.63
2018-05-11T09:19:35.377Z,101.25
2018-05-11T09:20:35.372Z,112.50
2018-05-11T09:21:35.356Z,135.00
2018-05-11T09:22:35.362Z,140.63
2018-05-11T09:23:35.368Z,123.75
2018-05-11T09:24:35.338Z,118.13
2018-05-11T09:25:35.327Z,95.63
2018-05-11T09:26:35.776Z,95.63
2018-05-11T09:27:35.316Z,101.25
2018-05-11T09:28:35.298Z,101.25
2018-05-11T09:29:35.287Z,95.63
2018-05-11T09:30:35.281Z,95.63
2018-05-11T09:31:35.282Z,90.00
2018-05-11T09:32:35.275Z,90.00
2018-05-11T09:33:35.266Z,90.00
2018-05-11T09:34:35.248Z,95.63
2018-05-11T09:35:35.278Z,95.63
2018-05-11T09:36:35.271Z,101.25
2018-05-11T09:37:35.223Z,106.88
2018-05-11T09:38:35.235Z,129.38
2018-05-11T09:39:35.244Z,135.00
2018-05-11T09:40:35.206Z,140.63
2018-05-11T09:41:35.229Z,140.63
2018-05-11T09:42:36.162Z,123.75
2018-05-11T09:43:35.178Z,112.50
2018-05-11T09:44:35.174Z,135.00
2018-05-11T09:45:35.208Z,219.38
2018-05-11T09:46:35.243Z,174.38
2018-05-11T09:47:35.148Z,191.25
2018-05-11T09:48:35.298Z,163.13
2018-05-11T09:49:35.257Z,146.25
2018-05-11T09:50:35.161Z,163.13
2018-05-11T09:51:35.118Z,135.00
2018-05-11T09:52:35.110Z,135.00
2018-05-11T09:53:35.128Z,146.25
2018-05-11T09:54:35.096Z,135.00
2018-05-11T09:55:35.093Z,118.13
2018-05-11T09:56:35.107Z,135.00
2018-05-11T09:57:35.069Z,112.50
2018-05-11T09:58:35.069Z,129.38
2018-05-11T09:59:35.071Z,101.25
2018-05-11T10:00:35.059Z,90.00
2018-05-11T10:01:35.084Z,106.88
2018-05-11T10:02:35.222Z,118.13
2018-05-11T10:03:35.025Z,123.75
2018-05-11T10:04:35.021Z,118.13
2018-05-11T10:05:35.024Z,118.13
2018-05-11T10:06:35.015Z,140.63
2018-05-11T10:07:35.037Z,236.25
2018-05-11T10:08:34.995Z,343.13
2018-05-11T10:09:34.986Z,427.50
2018-05-11T10:10:34.987Z,427.50
2018-05-11T10:11:34.972Z,433.13
2018-05-11T10:12:36.700Z,438.75
2018-05-11T10:13:35.259Z,444.38
2018-05-11T10:14:34.961Z,461.25
2018-05-11T10:15:35.346Z,123.75
2018-05-11T10:16:34.955Z,151.88
2018-05-11T10:17:34.952Z,556.88
2018-05-11T10:18:34.930Z,213.75
2018-05-11T10:19:34.955Z,101.25
2018-05-11T10:20:34.944Z,118.13
2018-05-11T10:21:34.931Z,658.13
2018-05-11T10:22:34.920Z,236.25
2018-05-11T10:23:34.917Z,275.63
2018-05-11T10:24:35.225Z,444.38
2018-05-11T10:25:34.929Z,624.38
2018-05-11T10:26:34.904Z,2981.25
2018-05-11T10:27:34.905Z,3268.13
2018-05-11T10:28:34.900Z,2340.00
2018-05-11T10:29:34.901Z,2188.13
2018-05-11T10:30:35.213Z,3037.50
2018-05-11T10:31:37.702Z,3144.38
2018-05-11T10:32:35.695Z,2930.63
2018-05-11T10:33:34.877Z,2885.63
2018-05-11T10:34:34.932Z,2981.25
2018-05-11T10:35:34.942Z,798.75
2018-05-11T10:36:34.885Z,180.00
2018-05-11T10:37:34.875Z,180.00
2018-05-11T10:38:34.888Z,202.50
2018-05-11T10:39:34.888Z,180.00
2018-05-11T10:40:34.874Z,112.50
2018-05-11T10:41:34.867Z,95.63
2018-05-11T10:42:34.869Z,90.00
2018-05-11T10:43:34.865Z,90.00
2018-05-11T10:44:34.856Z,95.63
2018-05-11T10:45:34.856Z,112.50
2018-05-11T10:46:35.270Z,540.00
2018-05-11T10:47:34.852Z,174.38
2018-05-11T10:48:34.891Z,135.00
2018-05-11T10:49:34.850Z,123.75
2018-05-11T10:50:34.840Z,112.50
2018-05-11T10:51:34.843Z,95.63
2018-05-11T10:52:34.880Z,90.00
2018-05-11T10:53:34.837Z,95.63
2018-05-11T10:54:34.863Z,106.88
2018-05-11T10:55:34.828Z,118.13
2018-05-11T10:56:34.831Z,168.75
2018-05-11T10:57:34.832Z,196.88
2018-05-11T10:58:35.026Z,168.75
2018-05-11T10:59:34.813Z,163.13
2018-05-11T11:00:34.954Z,511.88
2018-05-11T11:01:34.800Z,253.13
2018-05-11T11:02:34.796Z,253.13
2018-05-11T11:03:34.794Z,146.25
2018-05-11T11:04:34.784Z,146.25
2018-05-11T11:05:34.784Z,146.25
2018-05-11T11:06:34.809Z,157.50
2018-05-11T11:07:34.783Z,129.38
2018-05-11T11:08:34.769Z,112.50
2018-05-11T11:09:34.753Z,106.88
2018-05-11T11:10:34.758Z,101.25
2018-05-11T11:11:34.746Z,106.88
2018-05-11T11:12:34.830Z,123.75
2018-05-11T11:13:34.748Z,95.63
2018-05-11T11:14:34.806Z,90.00
2018-05-11T11:15:34.735Z,84.38
2018-05-11T11:16:34.731Z,84.38
2018-05-11T11:17:34.723Z,84.38
2018-05-11T11:18:34.721Z,95.63
2018-05-11T11:19:34.718Z,95.63
2018-05-11T11:20:34.702Z,95.63
2018-05-11T11:21:34.700Z,95.63
2018-05-11T11:22:34.747Z,112.50
2018-05-11T11:23:34.702Z,281.25
2018-05-11T11:24:34.688Z,523.13
2018-05-11T11:25:34.675Z,2885.63
2018-05-11T11:26:34.666Z,3189.38
2018-05-11T11:27:34.740Z,3189.38
2018-05-11T11:28:34.662Z,2941.88
2018-05-11T11:29:34.654Z,455.63
2018-05-11T11:30:34.654Z,163.13
2018-05-11T11:31:34.650Z,101.25
2018-05-11T11:32:34.645Z,106.88
2018-05-11T11:33:34.639Z,123.75
2018-05-11T11:34:34.718Z,354.38
2018-05-11T11:35:34.766Z,2896.88
2018-05-11T11:36:34.627Z,3144.38
2018-05-11T11:37:34.627Z,1507.50
2018-05-11T11:38:34.619Z,326.25
2018-05-11T11:39:34.606Z,495.00
2018-05-11T11:40:34.605Z,635.63
2018-05-11T11:41:34.683Z,2002.50
2018-05-11T11:42:34.605Z,2463.75
2018-05-11T11:43:34.626Z,264.38
2018-05-11T11:44:34.629Z,168.75
2018-05-11T11:45:34.604Z,196.88
2018-05-11T11:46:34.597Z,163.13
2018-05-11T11:47:34.617Z,123.75
2018-05-11T11:48:34.582Z,101.25
2018-05-11T11:49:34.593Z,95.63
2018-05-11T11:50:34.572Z,84.38
2018-05-11T11:51:34.576Z,84.38
2018-05-11T11:52:34.580Z,90.00
2018-05-11T11:53:34.569Z,95.63
2018-05-11T11:54:34.575Z,106.88
2018-05-11T11:55:34.560Z,112.50
2018-05-11T11:56:34.734Z,129.38
2018-05-11T11:57:34.587Z,157.50
2018-05-11T11:58:34.589Z,151.88
2018-05-11T11:59:34.554Z,157.50
2018-05-11T12:00:34.554Z,163.13
2018-05-11T12:01:34.585Z,163.13
2018-05-11T12:02:37.683Z,140.63
2018-05-11T12:03:34.628Z,129.38
2018-05-11T12:04:34.528Z,146.25
2018-05-11T12:05:34.536Z,185.63
2018-05-11T12:06:34.530Z,146.25
2018-05-11T12:07:34.542Z,123.75
2018-05-11T12:08:34.667Z,123.75
2018-05-11T12:09:34.512Z,129.38
2018-05-11T12:10:34.934Z,123.75
2018-05-11T12:11:34.507Z,140.63
2018-05-11T12:12:34.496Z,236.25
2018-05-11T12:13:34.664Z,213.75
2018-05-11T12:14:34.492Z,202.50
2018-05-11T12:15:34.483Z,157.50
2018-05-11T12:16:34.470Z,168.75
2018-05-11T12:17:34.482Z,163.13
2018-05-11T12:18:34.471Z,180.00
2018-05-11T12:19:34.624Z,219.38
2018-05-11T12:20:34.458Z,281.25
2018-05-11T12:21:34.447Z,241.88
2018-05-11T12:22:34.494Z,163.13
2018-05-11T12:23:34.528Z,123.75
2018-05-11T12:24:34.428Z,101.25
2018-05-11T12:25:34.427Z,95.63
2018-05-11T12:26:34.433Z,90.00
2018-05-11T12:27:34.451Z,78.75
2018-05-11T12:28:34.409Z,73.13
2018-05-11T12:29:34.420Z,73.13
2018-05-11T12:30:34.407Z,78.75
2018-05-11T12:31:34.403Z,84.38
2018-05-11T12:32:34.414Z,95.63
2018-05-11T12:33:34.404Z,118.13
2018-05-11T12:34:34.402Z,146.25
2018-05-11T12:35:34.385Z,151.88
2018-05-11T12:36:34.370Z,168.75
2018-05-11T12:37:34.369Z,180.00
2018-05-11T12:38:34.366Z,202.50
2018-05-11T12:39:34.382Z,196.88
2018-05-11T12:40:34.444Z,275.63
2018-05-11T12:41:34.343Z,236.25
2018-05-11T12:42:34.339Z,230.63
2018-05-11T12:43:34.327Z,236.25
2018-05-11T12:44:34.329Z,225.00
2018-05-11T12:45:34.386Z,270.00
2018-05-11T12:46:34.320Z,298.13
2018-05-11T12:47:34.717Z,225.00
2018-05-11T12:48:34.294Z,219.38
2018-05-11T12:49:34.342Z,213.75
2018-05-11T12:50:34.285Z,213.75
2018-05-11T12:51:34.333Z,213.75
2018-05-11T12:52:34.292Z,230.63
2018-05-11T12:53:34.808Z,208.13
2018-05-11T12:54:34.277Z,219.38
2018-05-11T12:55:34.261Z,208.13
2018-05-11T12:56:34.263Z,292.50
2018-05-11T12:57:34.297Z,202.50
2018-05-11T12:58:34.344Z,208.13
2018-05-11T12:59:34.236Z,208.13
2018-05-11T13:00:34.236Z,219.38
2018-05-11T13:01:34.233Z,219.38
2018-05-11T13:02:34.225Z,208.13
2018-05-11T13:03:34.525Z,213.75
2018-05-11T13:04:34.219Z,219.38
2018-05-11T13:05:34.275Z,208.13
2018-05-11T13:06:34.201Z,196.88
2018-05-11T13:07:34.202Z,157.50
2018-05-11T13:08:34.198Z,151.88
2018-05-11T13:09:34.332Z,123.75
2018-05-11T13:10:34.193Z,106.88
2018-05-11T13:11:34.180Z,101.25
2018-05-11T13:12:34.259Z,106.88
2018-05-11T13:13:34.179Z,106.88
2018-05-11T13:14:35.419Z,106.88
2018-05-11T13:15:34.168Z,118.13
2018-05-11T13:16:34.160Z,129.38
2018-05-11T13:17:34.776Z,140.63
2018-05-11T13:18:34.154Z,163.13
2018-05-11T13:19:34.143Z,157.50
2018-05-11T13:20:34.567Z,180.00
2018-05-11T13:21:34.133Z,123.75
2018-05-11T13:22:34.129Z,118.13
2018-05-11T13:23:34.120Z,106.88
2018-05-11T13:24:34.205Z,101.25
2018-05-11T13:25:34.195Z,101.25
2018-05-11T13:26:34.176Z,101.25
2018-05-11T13:27:34.089Z,95.63
2018-05-11T13:28:34.089Z,90.00
2018-05-11T13:29:34.090Z,84.38
2018-05-11T13:30:34.245Z,90.00
2018-05-11T13:31:34.083Z,84.38
2018-05-11T13:32:34.221Z,90.00
2018-05-11T13:33:34.058Z,101.25
2018-05-11T13:34:34.054Z,106.88
2018-05-11T13:35:34.288Z,112.50
2018-05-11T13:36:34.042Z,123.75
2018-05-11T13:37:34.053Z,140.63
2018-05-11T13:38:34.042Z,146.25
2018-05-11T13:39:34.024Z,146.25
2018-05-11T13:40:34.028Z,140.63
2018-05-11T13:41:34.009Z,157.50
2018-05-11T13:42:34.013Z,523.13
2018-05-11T13:43:34.145Z,1423.13
2018-05-11T13:44:33.991Z,208.13
2018-05-11T13:45:33.991Z,129.38
2018-05-11T13:46:33.988Z,135.00
2018-05-11T13:47:33.972Z,135.00
2018-05-11T13:48:34.164Z,135.00
2018-05-11T13:49:33.998Z,135.00
2018-05-11T13:50:33.960Z,129.38
2018-05-11T13:51:33.956Z,129.38
2018-05-11T13:52:33.947Z,118.13
2018-05-11T13:53:33.957Z,123.75
2018-05-11T13:54:33.967Z,185.63
2018-05-11T13:55:33.922Z,213.75
2018-05-11T13:56:34.010Z,225.00
2018-05-11T13:57:33.922Z,208.13
2018-05-11T13:58:33.936Z,180.00
2018-05-11T13:59:34.053Z,174.38
2018-05-11T14:00:33.905Z,315.00
2018-05-11T14:01:33.890Z,461.25
2018-05-11T14:02:33.897Z,95.63
2018-05-11T14:03:33.983Z,84.38
2018-05-11T14:04:33.897Z,78.75
2018-05-11T14:05:33.884Z,73.13
2018-05-11T14:06:33.871Z,73.13
2018-05-11T14:07:33.858Z,67.50
2018-05-11T14:08:33.848Z,61.88
2018-05-11T14:09:34.600Z,61.88
2018-05-11T14:10:33.892Z,61.88
2018-05-11T14:11:33.843Z,73.13
2018-05-11T14:12:33.981Z,73.13
2018-05-11T14:13:33.952Z,67.50
2018-05-11T14:14:33.817Z,67.50
2018-05-11T14:15:33.811Z,73.13
2018-05-11T14:16:33.808Z,73.13
2018-05-11T14:17:33.796Z,78.75
2018-05-11T14:18:33.805Z,78.75
2018-05-11T14:19:33.820Z,73.13
2018-05-11T14:20:33.779Z,73.13
2018-05-11T14:21:33.832Z,78.75
2018-05-11T14:22:33.775Z,90.00
2018-05-11T14:23:33.763Z,101.25
2018-05-11T14:24:33.761Z,112.50
2018-05-11T14:25:33.749Z,123.75
2018-05-11T14:26:33.758Z,135.00
2018-05-11T14:27:33.775Z,146.25
2018-05-11T14:28:33.735Z,253.13
2018-05-11T14:29:33.847Z,208.13
2018-05-11T14:30:33.749Z,191.25
2018-05-11T14:31:33.733Z,264.38
2018-05-11T14:32:33.746Z,320.63
2018-05-11T14:33:33.844Z,405.00
2018-05-11T14:34:33.705Z,135.00
2018-05-11T14:35:33.704Z,112.50
2018-05-11T14:36:33.698Z,157.50
2018-05-11T14:37:34.430Z,202.50
2018-05-11T14:38:34.442Z,118.13
2018-05-11T14:39:33.989Z,90.00
2018-05-11T14:40:33.669Z,90.00
2018-05-11T14:41:33.661Z,67.50
2018-05-11T14:42:33.664Z,67.50
2018-05-11T14:43:33.661Z,73.13
2018-05-11T14:44:33.659Z,84.38
2018-05-11T14:45:33.641Z,90.00
2018-05-11T14:46:33.636Z,135.00
2018-05-11T14:47:33.630Z,1344.38
2018-05-11T14:48:33.616Z,1299.38
2018-05-11T14:49:33.651Z,607.50
2018-05-11T14:50:33.614Z,635.63
2018-05-11T14:51:33.598Z,1361.25
2018-05-11T14:52:33.598Z,1721.25
2018-05-11T14:53:33.728Z,1479.38
2018-05-11T14:54:33.592Z,838.13
2018-05-11T14:55:33.585Z,1029.38
2018-05-11T14:56:33.573Z,1766.25
2018-05-11T14:57:33.574Z,1569.38
2018-05-11T14:58:33.578Z,1428.75
2018-05-11T14:59:33.716Z,1260.00
2018-05-11T15:00:33.567Z,776.25
2018-05-11T15:01:33.562Z,421.88
2018-05-11T15:02:33.568Z,95.63
2018-05-11T15:03:33.551Z,95.63
2018-05-11T15:04:33.560Z,84.38
2018-05-11T15:05:33.561Z,84.38
2018-05-11T15:06:33.558Z,67.50
2018-05-11T15:07:33.545Z,67.50
2018-05-11T15:08:33.547Z,78.75
2018-05-11T15:09:33.568Z,90.00
2018-05-11T15:10:33.558Z,78.75
2018-05-11T15:11:33.536Z,78.75
2018-05-11T15:12:33.549Z,84.38
2018-05-11T15:13:33.529Z,135.00
2018-05-11T15:14:33.522Z,151.88
2018-05-11T15:15:33.650Z,146.25
2018-05-11T15:16:33.515Z,129.38
2018-05-11T15:17:33.514Z,168.75
2018-05-11T15:18:33.513Z,180.00
2018-05-11T15:19:33.532Z,180.00
2018-05-11T15:20:33.501Z,174.38
2018-05-11T15:21:33.879Z,168.75
2018-05-11T15:22:33.489Z,163.13
2018-05-11T15:23:33.508Z,151.88
2018-05-11T15:24:33.497Z,146.25
2018-05-11T15:25:33.497Z,146.25
2018-05-11T15:26:33.481Z,146.25
2018-05-11T15:27:33.485Z,146.25
2018-05-11T15:28:33.464Z,146.25
2018-05-11T15:29:33.472Z,163.13
2018-05-11T15:30:33.463Z,174.38
2018-05-11T15:31:33.462Z,151.88
2018-05-11T15:32:33.489Z,140.63
2018-05-11T15:33:33.453Z,135.00
2018-05-11T15:34:33.442Z,135.00
2018-05-11T15:35:33.453Z,129.38
2018-05-11T15:36:33.444Z,129.38
2018-05-11T15:37:33.885Z,135.00
2018-05-11T15:38:33.436Z,135.00
2018-05-11T15:39:33.426Z,129.38
2018-05-11T15:40:33.494Z,146.25
2018-05-11T15:41:33.420Z,146.25
2018-05-11T15:42:33.408Z,135.00
2018-05-11T15:43:33.433Z,135.00
2018-05-11T15:44:33.408Z,140.63
2018-05-11T15:45:33.404Z,140.63
2018-05-11T15:46:33.394Z,146.25
2018-05-11T15:47:33.395Z,140.63
2018-05-11T15:48:33.511Z,129.38
2018-05-11T15:49:33.390Z,129.38
2018-05-11T15:50:33.379Z,129.38
2018-05-11T15:51:33.378Z,129.38
2018-05-11T15:52:33.372Z,135.00
2018-05-11T15:53:33.366Z,123.75
2018-05-11T15:54:33.357Z,90.00
2018-05-11T15:55:33.397Z,78.75
2018-05-11T15:56:33.355Z,78.75
2018-05-11T15:57:33.357Z,78.75
2018-05-11T15:58:33.365Z,78.75
2018-05-11T15:59:33.387Z,112.50
2018-05-11T16:00:33.328Z,118.13
2018-05-11T16:01:33.483Z,118.13
2018-05-11T16:02:33.328Z,118.13
2018-05-11T16:03:33.329Z,118.13
2018-05-11T16:04:33.310Z,118.13
2018-05-11T16:05:33.341Z,118.13
2018-05-11T16:06:33.419Z,118.13
2018-05-11T16:07:33.298Z,118.13
2018-05-11T16:08:33.299Z,123.75
2018-05-11T16:09:33.292Z,123.75
2018-05-11T16:10:33.881Z,123.75
2018-05-11T16:11:33.270Z,123.75
2018-05-11T16:12:33.322Z,123.75
2018-05-11T16:13:33.271Z,118.13
2018-05-11T16:14:34.548Z,118.13
2018-05-11T16:15:33.258Z,118.13
2018-05-11T16:16:33.266Z,112.50
2018-05-11T16:17:33.298Z,112.50
2018-05-11T16:18:33.260Z,106.88
2018-05-11T16:19:33.258Z,106.88
2018-05-11T16:20:33.331Z,106.88
2018-05-11T16:21:33.857Z,106.88
2018-05-11T16:22:33.264Z,106.88
2018-05-11T16:23:33.241Z,106.88
2018-05-11T16:24:33.217Z,106.88
2018-05-11T16:25:33.284Z,101.25
2018-05-11T16:26:33.210Z,101.25
2018-05-11T16:27:33.193Z,101.25
2018-05-11T16:28:33.205Z,101.25
2018-05-11T16:29:33.196Z,106.88
2018-05-11T16:30:33.196Z,112.50
2018-05-11T16:31:33.241Z,73.13
2018-05-11T16:32:33.262Z,78.75
2018-05-11T16:33:33.891Z,61.88
2018-05-11T16:34:33.920Z,56.25
2018-05-11T16:35:33.193Z,56.25
2018-05-11T16:36:33.875Z,50.63
2018-05-11T16:37:33.191Z,50.63
2018-05-11T16:38:33.151Z,50.63
2018-05-11T16:39:33.142Z,45.00
2018-05-11T16:40:33.184Z,45.00
2018-05-11T16:41:33.139Z,50.63
2018-05-11T16:42:34.499Z,50.63
2018-05-11T16:43:33.132Z,50.63
2018-05-11T16:44:33.365Z,61.88
2018-05-11T16:45:33.194Z,61.88
2018-05-11T16:46:34.458Z,61.88
2018-05-11T16:47:33.123Z,67.50
2018-05-11T16:48:33.117Z,67.50